createdAt,value
2022-10-22T00:02:27.792Z,100597.84
2022-10-22T00:04:56.878Z,100597.22
2022-10-22T00:07:23.466Z,100598.25
2022-10-22T00:09:49.986Z,100603.13
2022-10-22T00:12:17.212Z,100593.84
2022-10-22T00:14:43.836Z,100598.44
2022-10-22T00:17:11.587Z,100610.22
2022-10-22T00:19:39.293Z,100603.94
2022-10-22T00:22:06.244Z,100602.09
2022-10-22T00:24:34.169Z,100616.03
2022-10-22T00:27:01.300Z,100613.41
2022-10-22T00:29:27.757Z,100621.19
2022-10-22T00:34:22.329Z,100620.34
2022-10-22T00:36:50.177Z,100619.03
2022-10-22T00:39:19.035Z,100615.25
2022-10-22T00:41:47.495Z,100615.34
2022-10-22T00:44:51.191Z,100613.88
2022-10-22T00:47:18.749Z,100616.19
2022-10-22T00:49:46.834Z,100617.78
2022-10-22T00:52:14.180Z,100614.22
2022-10-22T00:54:41.615Z,100616.78
2022-10-22T00:57:08.744Z,100626.78
2022-10-22T00:59:36.131Z,100615.28
2022-10-22T01:02:02.576Z,100616.66
2022-10-22T01:04:28.948Z,100618.84
2022-10-22T01:06:55.680Z,100606.66
2022-10-22T01:09:46.695Z,100607.72
2022-10-22T01:12:51.867Z,100604.78
2022-10-22T01:15:26.533Z,100610.69
2022-10-22T01:18:20.355Z,100612.00
2022-10-22T01:20:58.582Z,100619.09
2022-10-22T01:23:46.470Z,100614.25
2022-10-22T01:26:40.780Z,100605.72
2022-10-22T01:29:13.158Z,100614.88
2022-10-22T01:31:47.330Z,100610.69
2022-10-22T01:34:18.146Z,100616.69
2022-10-22T01:36:46.699Z,100614.97
2022-10-22T01:39:15.309Z,100611.91
2022-10-22T01:41:45.362Z,100610.59
2022-10-22T01:44:29.952Z,100621.09
2022-10-22T01:47:21.166Z,100611.69
2022-10-22T01:50:06.133Z,100610.84
2022-10-22T01:52:52.078Z,100605.44
2022-10-22T01:55:29.964Z,100619.28
2022-10-22T01:58:24.304Z,100607.84
2022-10-22T02:01:00.548Z,100610.56
2022-10-22T02:03:34.036Z,100605.72
2022-10-22T02:06:05.833Z,100601.13
2022-10-22T02:08:35.277Z,100608.63
2022-10-22T02:11:04.014Z,100605.63
2022-10-22T02:13:51.221Z,100603.66
2022-10-22T02:16:24.416Z,100612.69
2022-10-22T02:18:54.261Z,100600.66
2022-10-22T02:21:21.687Z,100608.47
2022-10-22T02:23:48.381Z,100598.09
2022-10-22T02:26:22.856Z,100594.53
2022-10-22T02:28:59.521Z,100606.31
2022-10-22T02:31:32.265Z,100598.94
2022-10-22T02:34:04.908Z,100594.06
2022-10-22T02:36:32.216Z,100606.13
2022-10-22T02:38:59.770Z,100599.19
2022-10-22T02:41:26.910Z,100604.09
2022-10-22T02:43:55.210Z,100604.09
2022-10-22T02:46:21.796Z,100595.28
2022-10-22T02:48:48.340Z,100605.81
2022-10-22T02:51:14.797Z,100605.47
2022-10-22T02:53:41.258Z,100607.41
2022-10-22T02:56:07.991Z,100607.41
2022-10-22T02:58:34.365Z,100601.81
2022-10-22T03:01:01.050Z,100607.31
2022-10-22T03:03:27.439Z,100608.44
2022-10-22T03:05:53.812Z,100614.34
2022-10-22T03:08:20.202Z,100612.28
2022-10-22T03:10:46.586Z,100608.09
2022-10-22T03:13:13.587Z,100610.44
2022-10-22T03:15:39.966Z,100615.28
2022-10-22T03:18:06.412Z,100616.59
2022-10-22T03:20:32.798Z,100614.88
2022-10-22T03:23:00.185Z,100603.38
2022-10-22T03:25:28.166Z,100605.19
2022-10-22T03:27:57.927Z,100609.00
2022-10-22T03:30:24.270Z,100611.88
2022-10-22T03:32:50.621Z,100617.78
2022-10-22T03:35:17.031Z,100619.94
2022-10-22T03:37:43.801Z,100623.59
2022-10-22T03:40:11.536Z,100629.41
2022-10-22T03:42:38.185Z,100626.38
2022-10-22T03:45:05.672Z,100628.56
2022-10-22T03:47:32.083Z,100629.88
2022-10-22T03:49:58.435Z,100636.50
2022-10-22T03:52:24.810Z,100638.28
2022-10-22T03:54:51.195Z,100634.91
2022-10-22T03:57:17.658Z,100638.53
2022-10-22T03:59:45.995Z,100641.91
2022-10-22T04:02:14.133Z,100633.56
2022-10-22T04:04:40.491Z,100639.28
2022-10-22T04:07:07.539Z,100643.41
2022-10-22T04:09:34.759Z,100647.31
2022-10-22T04:12:01.283Z,100650.56
2022-10-22T04:14:27.649Z,100644.78
2022-10-22T04:16:54.284Z,100651.59
2022-10-22T04:19:20.648Z,100650.25
2022-10-22T04:21:46.986Z,100660.44
2022-10-22T04:24:13.417Z,100650.09
2022-10-22T04:26:39.836Z,100653.22
2022-10-22T04:29:10.623Z,100658.28
2022-10-22T04:31:39.915Z,100651.34
2022-10-22T04:34:06.302Z,100647.94
2022-10-22T04:36:33.651Z,100648.44
2022-10-22T04:39:01.754Z,100642.31
2022-10-22T04:41:31.579Z,100642.50
2022-10-22T04:43:58.689Z,100651.22
2022-10-22T04:46:27.391Z,100652.38
2022-10-22T04:48:53.796Z,100659.66
2022-10-22T04:51:22.400Z,100661.19
2022-10-22T04:53:49.062Z,100662.34
2022-10-22T04:56:17.070Z,100659.50
2022-10-22T04:58:44.064Z,100668.16
2022-10-22T05:01:19.345Z,100661.53
2022-10-22T05:03:46.529Z,100670.38
2022-10-22T05:08:44.925Z,100671.59
2022-10-22T05:11:16.362Z,100670.56
2022-10-22T05:13:42.707Z,100673.59
2022-10-22T05:16:09.728Z,100677.78
2022-10-22T05:18:37.434Z,100682.53
2022-10-22T05:21:05.310Z,100681.22
2022-10-22T05:23:31.653Z,100671.03
2022-10-22T05:26:02.822Z,100671.88
2022-10-22T05:28:29.391Z,100676.47
2022-10-22T05:30:57.427Z,100682.41
2022-10-22T05:33:24.188Z,100676.09
2022-10-22T05:35:50.986Z,100689.16
2022-10-22T05:38:18.020Z,100681.03
2022-10-22T05:40:44.781Z,100686.81
2022-10-22T05:43:11.847Z,100688.16
2022-10-22T05:45:42.852Z,100693.59
2022-10-22T05:48:09.849Z,100687.66
2022-10-22T05:50:37.627Z,100687.47
2022-10-22T05:53:05.484Z,100694.75
2022-10-22T05:55:37.041Z,100698.97
2022-10-22T05:58:05.049Z,100695.41
2022-10-22T06:00:31.392Z,100704.41
2022-10-22T06:02:57.774Z,100697.47
2022-10-22T06:05:24.207Z,100713.94
2022-10-22T06:07:50.623Z,100711.38
2022-10-22T06:10:20.605Z,100719.16
2022-10-22T06:12:48.233Z,100713.53
2022-10-22T06:15:17.417Z,100717.59
2022-10-22T06:17:45.129Z,100726.72
2022-10-22T06:20:12.321Z,100722.72
2022-10-22T06:22:39.063Z,100722.50
2022-10-22T06:25:08.350Z,100723.56
2022-10-22T06:27:35.273Z,100729.75
2022-10-22T06:30:01.766Z,100739.88
2022-10-22T06:32:28.111Z,100744.44
2022-10-22T06:34:54.469Z,100747.31
2022-10-22T06:37:20.820Z,100746.63
2022-10-22T06:39:47.184Z,100750.72
2022-10-22T06:42:13.627Z,100754.59
2022-10-22T06:44:40.000Z,100765.25
2022-10-22T06:47:06.357Z,100760.66
2022-10-22T06:49:32.729Z,100766.53
2022-10-22T06:51:59.086Z,100766.69
2022-10-22T06:54:25.433Z,100770.91
2022-10-22T06:56:51.859Z,100783.47
2022-10-22T06:59:18.230Z,100777.69
2022-10-22T07:01:44.650Z,100782.59
2022-10-22T07:04:11.166Z,100788.03
2022-10-22T07:06:37.712Z,100787.13
2022-10-22T07:09:04.394Z,100789.78
2022-10-22T07:11:39.271Z,100802.78
2022-10-22T07:14:05.653Z,100801.22
2022-10-22T07:16:32.636Z,100800.66
2022-10-22T07:19:00.575Z,100805.06
2022-10-22T07:21:27.377Z,100809.78
2022-10-22T07:23:53.804Z,100810.53
2022-10-22T07:26:20.559Z,100820.47
2022-10-22T07:28:47.869Z,100812.34
2022-10-22T07:31:15.247Z,100811.59
2022-10-22T07:33:41.616Z,100818.38
2022-10-22T07:36:11.124Z,100825.41
2022-10-22T07:38:37.681Z,100821.13
2022-10-22T07:41:04.330Z,100817.88
2022-10-22T07:43:30.829Z,100825.81
2022-10-22T07:45:57.246Z,100820.31
2022-10-22T07:48:24.150Z,100831.63
2022-10-22T07:50:51.454Z,100833.03
2022-10-22T07:53:18.380Z,100831.69
2022-10-22T07:55:48.235Z,100831.53
2022-10-22T07:58:14.602Z,100841.47
2022-10-22T08:00:41.021Z,100850.34
2022-10-22T08:03:10.649Z,100846.06
2022-10-22T08:05:37.336Z,100861.63
2022-10-22T08:08:04.260Z,100854.59
2022-10-22T08:10:30.706Z,100863.91
2022-10-22T08:12:57.503Z,100865.69
2022-10-22T08:15:25.541Z,100858.13
2022-10-22T08:17:52.153Z,100858.56
2022-10-22T08:20:19.297Z,100869.56
2022-10-22T08:22:46.036Z,100864.81
2022-10-22T08:25:13.130Z,100868.19
2022-10-22T08:27:39.798Z,100869.53
2022-10-22T08:30:07.158Z,100868.59
2022-10-22T08:32:33.693Z,100884.16
2022-10-22T08:35:00.104Z,100887.47
2022-10-22T08:37:26.540Z,100878.34
2022-10-22T08:39:52.938Z,100885.84
2022-10-22T08:42:47.151Z,100890.16
2022-10-22T08:45:22.892Z,100893.28
2022-10-22T08:48:18.855Z,100894.38
2022-10-22T08:50:51.763Z,100897.56
2022-10-22T08:53:22.406Z,100906.66
2022-10-22T08:55:52.574Z,100916.69
2022-10-22T08:58:25.170Z,100916.72
2022-10-22T09:01:05.768Z,100918.84
2022-10-22T09:03:45.593Z,100912.56
2022-10-22T09:06:15.988Z,100915.00
2022-10-22T09:08:45.269Z,100917.63
2022-10-22T09:11:24.709Z,100923.81
2022-10-22T09:13:54.848Z,100933.47
2022-10-22T09:16:36.185Z,100934.31
2022-10-22T09:19:25.690Z,100933.00
2022-10-22T09:22:15.514Z,100940.69
2022-10-22T09:24:47.994Z,100937.31
2022-10-22T09:27:26.142Z,100944.25
2022-10-22T09:29:52.609Z,100940.00
2022-10-22T09:32:19.402Z,100949.41
2022-10-22T09:34:50.062Z,100952.13
2022-10-22T09:37:19.392Z,100963.09
2022-10-22T09:39:52.308Z,100953.34
2022-10-22T09:42:20.646Z,100958.22
2022-10-22T09:44:57.611Z,100959.25
2022-10-22T09:48:00.972Z,100968.91
2022-10-22T09:50:44.505Z,100966.34
2022-10-22T09:53:25.226Z,100975.00
2022-10-22T09:56:01.543Z,100975.69
2022-10-22T09:58:28.365Z,100979.66
2022-10-22T10:00:58.339Z,100979.69
2022-10-22T10:03:29.068Z,100982.41
2022-10-22T10:06:01.508Z,100984.34
2022-10-22T10:08:31.501Z,100981.59
2022-10-22T10:11:04.087Z,100992.88
2022-10-22T10:14:04.024Z,100998.81
2022-10-22T10:16:47.579Z,101003.69
2022-10-22T10:19:26.541Z,101008.22
2022-10-22T10:22:22.790Z,101003.91
2022-10-22T10:25:11.105Z,101002.28
2022-10-22T10:27:52.401Z,101005.97
2022-10-22T10:30:23.978Z,101009.19
2022-10-22T10:33:23.896Z,101011.97
2022-10-22T10:36:02.423Z,101008.53
2022-10-22T10:39:02.774Z,101015.44
2022-10-22T10:42:03.571Z,101019.44
2022-10-22T10:45:01.095Z,101006.66
2022-10-22T10:47:52.241Z,100996.03
2022-10-22T10:50:28.882Z,101007.38
2022-10-22T10:53:34.307Z,101015.47
2022-10-22T10:56:28.041Z,101011.34
2022-10-22T10:59:14.187Z,101004.22
2022-10-22T11:02:02.088Z,101004.44
2022-10-22T11:04:41.113Z,101009.59
2022-10-22T11:07:30.078Z,101016.59
2022-10-22T11:10:24.577Z,101016.50
2022-10-22T11:12:56.531Z,101019.88
2022-10-22T11:15:32.122Z,101020.31
2022-10-22T11:18:11.074Z,101017.44
2022-10-22T11:20:50.102Z,101033.53
2022-10-22T11:23:22.348Z,101035.03
2022-10-22T11:25:50.138Z,101033.06
2022-10-22T11:28:25.435Z,101025.34
2022-10-22T11:31:13.156Z,101029.63
2022-10-22T11:33:57.329Z,101029.38
2022-10-22T11:39:05.062Z,101044.97
2022-10-22T11:41:34.213Z,101045.44
2022-10-22T11:44:22.614Z,101041.44
2022-10-22T11:47:09.254Z,101039.31
2022-10-22T11:49:44.543Z,101051.56
2022-10-22T11:52:32.789Z,101043.69
2022-10-22T11:55:03.771Z,101049.75
2022-10-22T11:57:39.168Z,101038.88
2022-10-22T12:00:40.180Z,101035.03
2022-10-22T12:03:32.176Z,101036.63
2022-10-22T12:06:15.687Z,101041.94
2022-10-22T12:08:44.976Z,101051.56
2022-10-22T12:11:11.335Z,101035.78
2022-10-22T12:14:01.836Z,101045.66
2022-10-22T12:16:56.043Z,101055.22
2022-10-22T12:19:22.770Z,101056.69
2022-10-22T12:21:55.329Z,101051.84
2022-10-22T12:24:24.442Z,101058.41
2022-10-22T12:26:52.637Z,101062.56
2022-10-22T12:29:23.634Z,101057.75
2022-10-22T12:31:50.368Z,101053.38
2022-10-22T12:34:21.202Z,101048.16
2022-10-22T12:36:49.176Z,101045.50
2022-10-22T12:39:18.514Z,101052.00
2022-10-22T12:41:45.531Z,101046.22
2022-10-22T12:44:14.527Z,101047.09
2022-10-22T12:46:42.499Z,101051.13
2022-10-22T12:49:15.495Z,101053.75
2022-10-22T12:51:43.055Z,101053.66
2022-10-22T12:54:23.156Z,101060.94
2022-10-22T12:56:50.349Z,101060.66
2022-10-22T12:59:22.229Z,101063.16
2022-10-22T13:01:50.584Z,101056.22
2022-10-22T13:04:17.056Z,101057.44
2022-10-22T13:06:45.836Z,101055.38
2022-10-22T13:09:23.758Z,101061.31
2022-10-22T13:12:01.594Z,101065.47
2022-10-22T13:14:30.578Z,101062.84
2022-10-22T13:17:06.025Z,101057.53
2022-10-22T13:20:02.112Z,101054.53
2022-10-22T13:22:37.467Z,101053.88
2022-10-22T13:25:03.789Z,101045.00
2022-10-22T13:27:31.038Z,101053.63
2022-10-22T13:30:02.629Z,101050.63
2022-10-22T13:32:32.022Z,101047.44
2022-10-22T13:35:00.700Z,101046.31
2022-10-22T13:37:28.839Z,101059.25
2022-10-22T13:39:55.255Z,101058.63
2022-10-22T13:42:21.611Z,101061.38
2022-10-22T13:44:48.049Z,101058.13
2022-10-22T13:47:28.886Z,101060.41
2022-10-22T13:49:58.670Z,101059.25
2022-10-22T13:52:33.958Z,101064.94
2022-10-22T13:55:00.363Z,101058.94
2022-10-22T13:57:26.749Z,101059.16
2022-10-22T13:59:53.177Z,101066.34
2022-10-22T14:02:20.222Z,101057.22
2022-10-22T14:04:46.695Z,101067.03
2022-10-22T14:07:17.039Z,101071.88
2022-10-22T14:09:43.764Z,101058.53
2022-10-22T14:12:13.017Z,101057.50
2022-10-22T14:14:39.414Z,101062.81
2022-10-22T14:17:06.143Z,101067.91
2022-10-22T14:19:32.511Z,101063.66
2022-10-22T14:21:58.881Z,101068.75
2022-10-22T14:24:25.327Z,101060.91
2022-10-22T14:26:51.679Z,101063.38
2022-10-22T14:29:18.050Z,101068.41
2022-10-22T14:31:44.976Z,101075.66
2022-10-22T14:34:16.495Z,101080.09
2022-10-22T14:36:45.777Z,101081.13
2022-10-22T14:39:13.198Z,101075.84
2022-10-22T14:41:40.927Z,101084.50
2022-10-22T14:44:12.437Z,101085.16
2022-10-22T14:46:40.233Z,101076.25
2022-10-22T14:49:06.570Z,101085.28
2022-10-22T14:51:32.942Z,101088.25
2022-10-22T14:53:59.366Z,101086.94
2022-10-22T14:56:25.751Z,101090.56
2022-10-22T14:58:53.329Z,101095.34
2022-10-22T15:01:19.698Z,101097.63
2022-10-22T15:03:46.066Z,101096.44
2022-10-22T15:06:12.461Z,101099.53
2022-10-22T15:08:39.356Z,101101.81
2022-10-22T15:11:12.079Z,101107.94
2022-10-22T15:13:40.478Z,101105.44
2022-10-22T15:16:08.656Z,101110.31
2022-10-22T15:18:35.204Z,101116.81
2022-10-22T15:21:22.505Z,101111.50
2022-10-22T15:23:49.676Z,101109.16
2022-10-22T15:26:16.943Z,101112.03
2022-10-22T15:28:43.422Z,101116.81
2022-10-22T15:31:13.887Z,101120.59
2022-10-22T15:33:41.313Z,101123.34
2022-10-22T15:36:16.185Z,101116.06
2022-10-22T15:38:42.577Z,101120.22
2022-10-22T15:41:11.894Z,101123.47
2022-10-22T15:43:38.304Z,101126.63
2022-10-22T15:46:14.474Z,101128.69
2022-10-22T15:48:41.574Z,101129.00
2022-10-22T15:51:13.689Z,101129.63
2022-10-22T15:53:40.952Z,101124.56
2022-10-22T15:56:08.384Z,101124.69
2022-10-22T15:58:34.986Z,101122.94
2022-10-22T16:01:07.151Z,101116.00
2022-10-22T16:03:33.784Z,101122.41
2022-10-22T16:06:00.489Z,101116.94
2022-10-22T16:08:27.883Z,101120.06
2022-10-22T16:10:54.282Z,101118.06
2022-10-22T16:13:23.796Z,101125.28
2022-10-22T16:15:50.933Z,101133.09
2022-10-22T16:18:18.692Z,101127.41
2022-10-22T16:20:45.435Z,101123.38
2022-10-22T16:23:11.939Z,101125.16
2022-10-22T16:25:39.333Z,101124.78
2022-10-22T16:28:05.830Z,101137.19
2022-10-22T16:30:36.200Z,101128.72
2022-10-22T16:33:03.772Z,101139.31
2022-10-22T16:35:30.471Z,101142.34
2022-10-22T16:37:56.858Z,101140.06
2022-10-22T16:40:24.185Z,101140.63
2022-10-22T16:42:50.566Z,101141.09
2022-10-22T16:45:17.161Z,101149.63
2022-10-22T16:47:45.705Z,101152.34
2022-10-22T16:50:12.418Z,101156.22
2022-10-22T16:52:38.779Z,101147.16
2022-10-22T16:55:05.561Z,101148.66
2022-10-22T16:57:33.827Z,101145.28
2022-10-22T17:00:00.189Z,101152.84
2022-10-22T17:02:26.564Z,101153.94
2022-10-22T17:04:52.899Z,101157.06
2022-10-22T17:07:19.273Z,101147.47
2022-10-22T17:09:45.641Z,101147.91
2022-10-22T17:12:12.079Z,101160.91
2022-10-22T17:14:38.420Z,101155.09
2022-10-22T17:17:04.776Z,101154.66
2022-10-22T17:19:31.147Z,101158.78
2022-10-22T17:21:57.592Z,101161.69
2022-10-22T17:24:23.953Z,101162.03
2022-10-22T17:26:50.341Z,101167.84
2022-10-22T17:29:16.786Z,101167.94
2022-10-22T17:31:43.206Z,101171.78
2022-10-22T17:34:15.152Z,101178.31
2022-10-22T17:36:42.577Z,101176.59
2022-10-22T17:39:13.293Z,101185.97
2022-10-22T17:41:39.686Z,101184.66
2022-10-22T17:44:09.091Z,101171.94
2022-10-22T17:46:35.828Z,101180.53
2022-10-22T17:49:04.420Z,101183.34
2022-10-22T17:51:31.335Z,101185.59
2022-10-22T17:53:57.782Z,101180.94
2022-10-22T17:56:26.543Z,101174.03
2022-10-22T17:58:53.741Z,101175.69
2022-10-22T18:01:26.964Z,101168.38
2022-10-22T18:03:55.711Z,101176.34
2022-10-22T18:06:22.232Z,101180.88
2022-10-22T18:08:48.689Z,101179.47
2022-10-22T18:11:21.593Z,101176.97
2022-10-22T18:13:53.501Z,101185.38
2022-10-22T18:16:20.159Z,101186.25
2022-10-22T18:18:52.980Z,101195.28
2022-10-22T18:21:20.456Z,101193.53
2022-10-22T18:23:46.954Z,101188.94
2022-10-22T18:26:14.009Z,101180.28
2022-10-22T18:28:40.533Z,101178.47
2022-10-22T18:31:08.856Z,101181.69
2022-10-22T18:33:36.849Z,101190.25
2022-10-22T18:36:11.155Z,101187.47
2022-10-22T18:38:40.901Z,101187.59
2022-10-22T18:41:09.821Z,101195.06
2022-10-22T18:43:36.698Z,101193.22
2022-10-22T18:46:06.332Z,101188.25
2022-10-22T18:48:32.732Z,101191.50
2022-10-22T18:51:01.834Z,101190.19
2022-10-22T18:53:28.874Z,101193.06
2022-10-22T18:55:55.531Z,101197.09
2022-10-22T18:58:22.252Z,101214.47
2022-10-22T19:00:49.929Z,101212.41
2022-10-22T19:03:16.891Z,101205.47
2022-10-22T19:05:48.710Z,101202.38
2022-10-22T19:08:17.017Z,101193.44
2022-10-22T19:10:47.498Z,101190.53
2022-10-22T19:13:15.754Z,101185.66
2022-10-22T19:15:42.779Z,101179.03
2022-10-22T19:18:10.132Z,101179.78
2022-10-22T19:20:37.233Z,101184.91
2022-10-22T19:23:04.120Z,101177.63
2022-10-22T19:25:30.519Z,101173.34
2022-10-22T19:27:56.893Z,101172.47
2022-10-22T19:30:24.145Z,101172.31
2022-10-22T19:32:50.751Z,101169.09
2022-10-22T19:35:17.371Z,101170.81
2022-10-22T19:37:48.201Z,101170.66
2022-10-22T19:40:15.040Z,101161.16
2022-10-22T19:42:44.249Z,101167.59
2022-10-22T19:45:11.171Z,101163.91
2022-10-22T19:47:37.520Z,101166.94
2022-10-22T19:50:04.152Z,101168.25
2022-10-22T19:52:30.509Z,101165.06
2022-10-22T19:54:56.925Z,101169.72
2022-10-22T19:57:23.298Z,101168.00
2022-10-22T19:59:49.678Z,101179.22
2022-10-22T20:02:18.242Z,101174.81
2022-10-22T20:04:49.189Z,101176.91
2022-10-22T20:07:16.740Z,101174.00
2022-10-22T20:09:43.151Z,101182.03
2022-10-22T20:12:09.499Z,101177.97
2022-10-22T20:14:35.953Z,101169.97
2022-10-22T20:17:02.305Z,101172.84
2022-10-22T20:19:29.752Z,101175.00
2022-10-22T20:21:56.187Z,101179.31
2022-10-22T20:24:22.923Z,101179.63
2022-10-22T20:26:49.428Z,101183.00
2022-10-22T20:29:18.961Z,101184.56
2022-10-22T20:31:46.117Z,101184.59
2022-10-22T20:34:13.012Z,101180.81
2022-10-22T20:36:39.568Z,101180.44
2022-10-22T20:39:10.268Z,101181.19
2022-10-22T20:41:40.635Z,101183.94
2022-10-22T20:44:11.581Z,101177.41
2022-10-22T20:46:38.097Z,101171.47
2022-10-22T20:49:08.836Z,101179.66
2022-10-22T20:51:36.481Z,101182.06
2022-10-22T20:54:03.490Z,101179.47
2022-10-22T20:56:29.857Z,101179.16
2022-10-22T20:59:04.554Z,101177.16
2022-10-22T21:01:44.011Z,101183.09
2022-10-22T21:04:10.963Z,101186.88
2022-10-22T21:06:41.712Z,101192.34
2022-10-22T21:09:09.644Z,101191.63
2022-10-22T21:11:37.388Z,101182.31
2022-10-22T21:14:05.742Z,101178.91
2022-10-22T21:16:32.287Z,101175.00
2022-10-22T21:18:59.038Z,101178.56
2022-10-22T21:21:25.571Z,101191.63
2022-10-22T21:23:52.087Z,101189.13
2022-10-22T21:26:19.683Z,101200.16
2022-10-22T21:28:46.445Z,101206.44
2022-10-22T21:31:20.485Z,101215.78
2022-10-22T21:33:49.255Z,101205.25
2022-10-22T21:36:20.282Z,101195.97
2022-10-22T21:38:49.187Z,101196.94
2022-10-22T21:41:17.514Z,101198.66
2022-10-22T21:43:44.927Z,101196.91
2022-10-22T21:46:14.300Z,101197.63
2022-10-22T21:48:40.871Z,101199.97
2022-10-22T21:51:08.400Z,101191.53
2022-10-22T21:53:35.196Z,101189.34
2022-10-22T21:56:01.810Z,101199.88
2022-10-22T21:58:28.217Z,101205.78
2022-10-22T22:00:56.751Z,101202.72
2022-10-22T22:03:24.208Z,101199.00
2022-10-22T22:05:52.233Z,101201.03
2022-10-22T22:08:19.011Z,101202.06
2022-10-22T22:10:45.372Z,101203.03
2022-10-22T22:13:11.807Z,101210.53
2022-10-22T22:15:38.165Z,101208.16
2022-10-22T22:18:04.665Z,101194.25
2022-10-22T22:20:31.093Z,101191.88
2022-10-22T22:22:57.719Z,101191.19
2022-10-22T22:25:24.114Z,101201.06
2022-10-22T22:27:50.472Z,101181.66
2022-10-22T22:30:17.879Z,101181.69
2022-10-22T22:32:44.277Z,101174.59
2022-10-22T22:35:10.615Z,101172.66
2022-10-22T22:37:36.969Z,101172.84
2022-10-22T22:40:03.495Z,101170.84
2022-10-22T22:42:29.854Z,101172.72
2022-10-22T22:44:56.257Z,101164.41
2022-10-22T22:47:22.650Z,101163.50
2022-10-22T22:49:48.979Z,101154.88
2022-10-22T22:52:15.383Z,101163.34
2022-10-22T22:54:41.743Z,101158.28
2022-10-22T22:57:08.105Z,101154.81
2022-10-22T22:59:34.471Z,101157.22
2022-10-22T23:02:00.872Z,101151.00
2022-10-22T23:04:29.339Z,101150.63
2022-10-22T23:06:56.376Z,101154.19
2022-10-22T23:09:22.823Z,101154.03
2022-10-22T23:11:50.570Z,101142.69
2022-10-22T23:14:19.193Z,101150.66
2022-10-22T23:16:49.083Z,101145.06
2022-10-22T23:19:17.368Z,101145.06
2022-10-22T23:21:48.948Z,101137.59
2022-10-22T23:24:18.186Z,101133.41
2022-10-22T23:26:47.048Z,101122.00
2022-10-22T23:29:16.593Z,101133.72
2022-10-22T23:31:44.199Z,101128.09
2022-10-22T23:34:13.486Z,101131.50
2022-10-22T23:36:40.325Z,101144.50
2022-10-22T23:39:09.810Z,101130.44
2022-10-22T23:41:36.562Z,101136.59
2022-10-22T23:44:04.562Z,101137.28
2022-10-22T23:46:30.968Z,101136.78
2022-10-22T23:48:57.452Z,101137.28
2022-10-22T23:51:23.886Z,101130.53
2022-10-22T23:53:59.347Z,101122.56
2022-10-22T23:56:26.491Z,101118.00
2022-10-22T23:58:53.621Z,101109.03
